Time;durP1;ratioP1;P1;durP2;ratioP2;P2;SDS_P1;SDS_P2;PMS_P1;PMS_P2;Temp;Humidity;BMP_temperature;BMP_pressure;BME280_temperature;BME280_humidity;BME280_pressure;Samples;Min_cycle;Max_cycle;Signal;HPM_P1;HPM_P2
2022/11/22 00:00:19;;;;;;;6.70;6.10;;;;;;;7.80;100.00;100927.22;2048102;28;20193;-66
2022/11/22 00:01:19;;;;;;;6.57;5.70;;;;;;;7.76;100.00;100914.66;2048278;28;20196;-66
2022/11/22 00:02:19;;;;;;;6.77;6.10;;;;;;;7.83;100.00;100929.19;2047445;28;20198;-66
2022/11/22 00:03:20;;;;;;;6.53;5.90;;;;;;;7.88;100.00;100941.75;2048260;28;20208;-66
2022/11/22 00:04:20;;;;;;;7.47;5.53;;;;;;;7.82;100.00;100941.41;2048168;28;20248;-66
2022/11/22 00:05:21;;;;;;;7.13;5.97;;;;;;;7.88;100.00;100944.50;2048699;28;20200;-66
2022/11/22 00:06:21;;;;;;;7.10;5.87;;;;;;;7.90;100.00;100942.16;2047158;29;20611;-66
2022/11/22 00:07:22;;;;;;;7.07;6.37;;;;;;;7.86;100.00;100944.94;2048299;29;20252;-66
2022/11/22 00:08:23;;;;;;;7.07;6.00;;;;;;;7.86;100.00;100946.91;2048726;29;20242;-66
2022/11/22 00:09:23;;;;;;;7.20;6.20;;;;;;;7.85;100.00;100939.81;2047694;28;20759;-66
2022/11/22 00:10:24;;;;;;;7.00;6.30;;;;;;;7.81;100.00;100950.09;2047869;28;20685;-66
2022/11/22 00:11:24;;;;;;;7.63;6.00;;;;;;;7.78;100.00;100935.13;2048098;28;20200;-66
2022/11/22 00:12:25;;;;;;;6.67;5.97;;;;;;;7.83;100.00;100942.97;2048509;28;20195;-66
2022/11/22 00:13:25;;;;;;;7.50;6.10;;;;;;;7.83;100.00;100942.19;2048696;28;20191;-66
2022/11/22 00:14:25;;;;;;;7.23;6.23;;;;;;;7.87;100.00;100945.72;2048070;28;20341;-66
2022/11/22 00:15:26;;;;;;;7.27;6.23;;;;;;;7.86;100.00;100944.16;2048646;28;20184;-66
2022/11/22 00:16:27;;;;;;;6.23;5.63;;;;;;;7.72;100.00;100931.25;2048826;28;20176;-66
2022/11/22 00:17:27;;;;;;;6.63;5.97;;;;;;;7.87;100.00;100948.47;2048522;28;20217;-67
2022/11/22 00:18:28;;;;;;;6.90;6.20;;;;;;;7.54;100.00;100889.19;2048665;28;20311;-66
2022/11/22 00:19:28;;;;;;;6.33;5.73;;;;;;;7.70;100.00;100930.09;2048165;28;20180;-66
2022/11/22 00:20:29;;;;;;;6.73;6.03;;;;;;;7.84;100.00;100941.03;2048047;28;20198;-66
2022/11/22 00:21:29;;;;;;;6.63;6.00;;;;;;;7.85;100.00;100940.59;2048239;29;20219;-66
2022/11/22 00:22:31;;;;;;;7.57;5.83;;;;;;;7.83;100.00;100939.41;2048710;28;20180;-66
2022/11/22 00:23:31;;;;;;;6.90;6.20;;;;;;;7.79;100.00;100928.41;2048029;28;20278;-66
2022/11/22 00:24:32;;;;;;;7.47;6.20;;;;;;;7.87;100.00;100946.50;2048278;28;20184;-66
2022/11/22 00:25:32;;;;;;;6.90;6.20;;;;;;;7.26;100.00;100850.81;2047864;29;20186;-67
2022/11/22 00:26:33;;;;;;;7.87;6.27;;;;;;;7.88;100.00;100939.78;2048428;28;20289;-66
2022/11/22 00:27:33;;;;;;;6.97;6.10;;;;;;;7.89;100.00;100941.34;2048519;28;20196;-66
2022/11/22 00:28:33;;;;;;;8.43;6.20;;;;;;;7.91;100.00;100944.50;2048029;28;20260;-66
2022/11/22 00:29:34;;;;;;;7.10;6.40;;;;;;;7.92;100.00;100946.06;2048316;28;20255;-66
2022/11/22 00:30:34;;;;;;;7.43;6.07;;;;;;;7.89;100.00;100948.88;2048081;28;20261;-66
2022/11/22 00:31:35;;;;;;;6.83;5.77;;;;;;;7.95;100.00;100947.22;2048011;28;20202;-66
2022/11/22 00:32:35;;;;;;;7.10;5.80;;;;;;;7.94;100.00;100957.47;2048175;28;20199;-67
2022/11/22 00:33:36;;;;;;;6.50;5.90;;;;;;;7.91;100.00;100952.78;2047887;29;20670;-67
2022/11/22 00:34:36;;;;;;;6.70;5.83;;;;;;;7.90;100.00;100951.19;2048148;28;20548;-66
2022/11/22 00:35:37;;;;;;;6.77;6.03;;;;;;;7.62;100.00;100920.28;2047530;29;20287;-66
2022/11/22 00:36:37;;;;;;;6.20;5.60;;;;;;;7.89;100.00;100954.38;2047761;29;20178;-66
2022/11/22 00:37:38;;;;;;;6.63;5.93;;;;;;;7.29;100.00;100868.53;2047901;29;20401;-66
2022/11/22 00:38:38;;;;;;;7.57;5.73;;;;;;;7.88;100.00;100950.03;2048007;28;20196;-67
2022/11/22 00:39:38;;;;;;;6.57;5.83;;;;;;;7.90;100.00;100955.94;2048240;28;20202;-66
2022/11/22 00:40:39;;;;;;;6.70;6.00;;;;;;;7.29;100.00;100858.25;2054742;28;20197;-67
2022/11/22 00:41:39;;;;;;;6.03;5.43;;;;;;;7.83;100.00;100931.94;2055417;28;20195;-66
2022/11/22 00:42:40;;;;;;;5.97;5.37;;;;;;;7.88;100.00;100950.81;2048217;28;20197;-66
2022/11/22 00:43:40;;;;;;;6.87;5.73;;;;;;;7.76;100.00;100926.50;2047923;28;20685;-67
2022/11/22 00:44:41;;;;;;;6.60;5.93;;;;;;;7.37;100.00;100876.34;2046034;28;20180;-66
2022/11/22 00:45:41;;;;;;;6.40;5.80;;;;;;;7.41;100.00;100868.84;2046680;29;20706;-66
2022/11/22 00:46:42;;;;;;;6.97;5.90;;;;;;;7.33;100.00;100859.03;2048567;29;20184;-66
2022/11/22 00:47:42;;;;;;;7.30;6.47;;;;;;;7.89;100.00;100943.34;2048204;28;20246;-66
2022/11/22 00:48:42;;;;;;;6.63;5.93;;;;;;;7.87;100.00;100945.72;2047456;28;20705;-66
2022/11/22 00:49:43;;;;;;;7.13;6.43;;;;;;;7.58;100.00;100916.78;2048237;28;20714;-66
2022/11/22 00:50:43;;;;;;;6.30;5.70;;;;;;;7.81;100.00;100942.63;2047167;28;20376;-66
2022/11/22 00:51:44;;;;;;;6.80;6.10;;;;;;;7.79;100.00;100944.22;2049727;28;20195;-66
2022/11/22 00:52:44;;;;;;;7.63;6.20;;;;;;;7.81;100.00;100947.34;2046946;28;20295;-66
2022/11/22 00:53:45;;;;;;;7.47;6.77;;;;;;;7.41;100.00;100882.63;2048045;28;20447;-66
2022/11/22 00:54:46;;;;;;;7.07;6.37;;;;;;;7.90;100.00;100947.66;2048091;28;20327;-66
2022/11/22 00:55:47;;;;;;;6.90;6.13;;;;;;;7.87;100.00;100942.94;2048214;28;20201;-66
2022/11/22 00:56:47;;;;;;;6.80;6.10;;;;;;;7.89;100.00;100944.09;2048199;28;20197;-66
2022/11/22 00:57:48;;;;;;;7.30;6.50;;;;;;;7.52;100.00;100877.81;2047256;28;20202;-66
2022/11/22 00:58:48;;;;;;;7.40;6.00;;;;;;;7.93;100.00;100944.06;2047558;28;20209;-66
2022/11/22 00:59:49;;;;;;;7.00;6.20;;;;;;;7.13;100.00;100813.13;2047553;29;20263;-66
2022/11/22 01:00:50;;;;;;;7.27;6.53;;;;;;;7.43;100.00;100879.47;2047153;28;20185;-67
2022/11/22 01:01:50;;;;;;;6.43;5.73;;;;;;;7.90;100.00;100939.38;2048123;28;20240;-66
2022/11/22 01:02:50;;;;;;;7.53;6.50;;;;;;;7.97;100.00;100939.31;2047990;28;20219;-65
2022/11/22 01:03:51;;;;;;;7.57;6.73;;;;;;;7.59;100.00;100896.28;2047346;28;20616;-67
2022/11/22 01:04:51;;;;;;;7.53;6.10;;;;;;;7.95;100.00;100945.25;2048118;28;20290;-66
2022/11/22 01:05:52;;;;;;;7.43;6.67;;;;;;;7.93;100.00;100950.38;2047810;28;20227;-66
2022/11/22 01:06:52;;;;;;;7.07;6.37;;;;;;;7.89;100.00;100948.88;2048195;28;20184;-67
2022/11/22 01:07:53;;;;;;;8.53;6.67;;;;;;;7.87;100.00;100949.25;2046793;28;20208;-66
2022/11/22 01:08:53;;;;;;;7.93;6.43;;;;;;;7.89;100.00;100944.09;2046956;29;20217;-66
2022/11/22 01:09:54;;;;;;;7.37;6.67;;;;;;;7.69;100.00;100914.72;2048143;29;20175;-66
2022/11/22 01:10:59;;;;;;;9.87;6.87;;;;;;;7.56;100.00;100906.16;2047097;28;20221;-66
2022/11/22 01:11:59;;;;;;;7.30;6.55;;;;;;;7.73;100.00;100932.00;2047985;28;20194;-67
2022/11/22 01:13:00;;;;;;;6.67;5.80;;;;;;;7.76;100.00;100945.00;2047607;28;20201;-66
2022/11/22 01:14:01;;;;;;;7.77;6.43;;;;;;;7.75;100.00;100943.44;2047613;28;20668;-66
2022/11/22 01:15:01;;;;;;;7.37;6.60;;;;;;;7.71;100.00;100940.72;2048048;28;20568;-66
2022/11/22 01:16:07;;;;;;;7.13;5.90;;;;;;;7.66;100.00;100946.66;2047761;28;20191;-66
2022/11/22 01:17:08;;;;;;;6.78;5.95;;;;;;;7.65;100.00;100949.81;2047409;29;20270;-66
2022/11/22 01:18:08;;;;;;;7.70;6.43;;;;;;;7.69;100.00;100950.59;2046925;28;20230;-66
2022/11/22 01:19:09;;;;;;;7.43;6.20;;;;;;;7.66;100.00;100948.63;2047177;29;20180;-66
2022/11/22 01:20:10;;;;;;;7.22;6.50;;;;;;;7.65;100.00;100958.88;2046883;28;20185;-66
2022/11/22 01:21:10;;;;;;;6.90;6.20;;;;;;;7.68;100.00;100949.03;2047976;28;20184;-66
2022/11/22 01:22:11;;;;;;;6.93;6.23;;;;;;;7.29;100.00;100887.81;2047754;29;20246;-66
2022/11/22 01:23:11;;;;;;;6.70;5.87;;;;;;;7.59;100.00;100937.66;2046644;28;20270;-66
2022/11/22 01:24:12;;;;;;;7.50;6.70;;;;;;;7.68;100.00;100944.28;2047230;29;20729;-66
2022/11/22 01:25:12;;;;;;;7.70;6.43;;;;;;;7.63;100.00;100944.69;2048526;28;20545;-67
2022/11/22 01:26:12;;;;;;;7.27;6.40;;;;;;;7.55;100.00;100943.19;2046994;28;20175;-66
2022/11/22 01:27:13;;;;;;;6.70;6.00;;;;;;;7.30;100.00;100897.66;2048180;28;20184;-66
2022/11/22 01:28:13;;;;;;;6.80;6.10;;;;;;;7.57;100.00;100928.97;2048217;28;20729;-66
2022/11/22 01:29:14;;;;;;;7.80;7.00;;;;;;;7.71;100.00;100943.47;2047612;28;20275;-66
2022/11/22 01:30:14;;;;;;;7.83;7.03;;;;;;;7.74;100.00;100948.16;2047371;29;20195;-67
2022/11/22 01:31:15;;;;;;;7.60;6.57;;;;;;;7.73;100.00;100941.09;2048157;28;20218;-67
2022/11/22 01:32:15;;;;;;;7.47;6.77;;;;;;;7.73;100.00;100938.31;2047770;28;20224;-66
2022/11/22 01:33:16;;;;;;;7.80;7.00;;;;;;;7.69;100.00;100948.59;2047625;28;20186;-66
2022/11/22 01:34:16;;;;;;;7.70;6.90;;;;;;;7.67;100.00;100952.94;2047980;28;20235;-66
2022/11/22 01:35:17;;;;;;;7.00;6.27;;;;;;;7.68;100.00;100949.78;2047962;28;20192;-67
2022/11/22 01:36:17;;;;;;;6.93;6.23;;;;;;;7.63;100.00;100941.94;2047980;28;20191;-66
2022/11/22 01:37:17;;;;;;;8.80;7.33;;;;;;;7.73;100.00;100954.88;2047844;28;20184;-66
2022/11/22 01:38:18;;;;;;;8.70;7.80;;;;;;;7.76;100.00;100956.84;2047831;28;20225;-67
2022/11/22 01:39:18;;;;;;;7.40;6.60;;;;;;;7.73;100.00;100943.84;2047468;28;20193;-67
2022/11/22 01:40:19;;;;;;;8.20;7.37;;;;;;;7.38;100.00;100885.41;2047192;28;20322;-67
2022/11/22 01:41:19;;;;;;;7.00;6.30;;;;;;;7.79;100.00;100944.22;2047467;29;20235;-66
2022/11/22 01:42:19;;;;;;;8.30;7.40;;;;;;;7.06;100.00;100832.44;2048016;28;20714;-66
2022/11/22 01:43:24;;;;;;;6.87;6.17;;;;;;;7.77;100.00;100944.59;2047624;28;20262;-66
2022/11/22 01:44:30;;;;;;;5.68;5.07;;;;;;;7.08;100.00;100852.88;2047942;29;20181;-66
2022/11/22 01:45:30;;;;;;;6.75;5.20;;;;;;;7.79;100.00;100947.72;2048200;28;20234;-66
2022/11/22 01:46:37;;;;;;;6.83;5.50;;;;;;;7.75;100.00;100919.38;2048070;28;20220;-66
2022/11/22 01:47:37;;;;;;;7.55;6.18;;;;;;;7.79;100.00;100928.41;2047662;28;20713;-66
2022/11/22 01:49:00;;;;;;;6.90;6.20;;;;;;;7.81;100.00;100937.09;2047349;28;20188;-66
2022/11/22 01:50:05;;;;;;;6.88;5.50;;;;;;;7.31;100.00;100877.16;2047464;28;20669;-66
2022/11/22 01:51:16;;;;;;;5.60;4.95;;;;;;;7.68;100.00;100926.94;2047170;29;20267;-67
2022/11/22 01:52:19;;;;;;;5.90;5.10;;;;;;;7.75;100.00;100930.41;2048032;28;20191;-66
2022/11/22 01:53:24;;;;;;;6.13;5.53;;;;;;;7.48;100.00;100884.53;2047862;28;20206;-67
2022/11/22 01:54:31;;;;;;;7.45;5.82;;;;;;;7.49;100.00;100875.09;2047057;28;20709;-66
2022/11/22 01:55:33;;;;;;;6.03;4.95;;;;;;;7.28;100.00;100840.16;2047357;29;20209;-66
2022/11/22 01:56:35;;;;;;;5.40;4.90;;;;;;;7.74;100.00;100917.81;2047908;28;20199;-66
2022/11/22 01:57:38;;;;;;;6.00;5.40;;;;;;;7.72;100.00;100934.00;2047412;28;20754;-66
2022/11/22 01:58:41;;;;;;;7.25;5.50;;;;;;;7.47;100.00;100894.78;2047175;28;20200;-66
2022/11/22 01:59:47;;;;;;;5.38;4.80;;;;;;;7.77;100.00;100936.34;2063386;28;20253;-66
2022/11/22 02:00:51;;;;;;;5.70;5.10;;;;;;;7.73;100.00;100932.81;2061876;28;20277;-67
2022/11/22 02:01:52;;;;;;;6.55;5.38;;;;;;;7.71;100.00;100928.88;2054853;28;20366;-67
2022/11/22 02:02:57;;;;;;;6.00;5.28;;;;;;;7.75;100.00;100940.69;2047264;28;20181;-66
2022/11/22 02:04:00;;;;;;;5.93;4.88;;;;;;;7.75;100.00;100922.13;2046472;29;20261;-66
2022/11/22 02:05:05;;;;;;;5.68;5.03;;;;;;;7.07;100.00;100836.78;2046585;29;20179;-66
2022/11/22 02:06:06;;;;;;;7.18;5.32;;;;;;;7.62;100.00;100915.56;2046473;28;20215;-67
2022/11/22 02:07:34;;;;;;;6.78;5.20;;;;;;;7.77;100.00;100939.09;2047869;28;20258;-66
2022/11/22 02:08:56;;;;;;;5.68;5.05;;;;;;;7.75;100.00;100937.94;2046612;29;20240;-66
2022/11/22 02:09:56;;;;;;;5.97;5.10;;;;;;;7.62;100.00;100909.25;2047132;29;20192;-66
2022/11/22 02:11:00;;;;;;;5.63;5.07;;;;;;;7.76;100.00;100940.28;2047031;28;20193;-66
2022/11/22 02:12:04;;;;;;;5.43;4.90;;;;;;;7.15;100.00;100863.88;2047821;28;20185;-67
2022/11/22 02:13:06;;;;;;;5.40;4.90;;;;;;;7.68;100.00;100943.50;2047892;28;20776;-66
2022/11/22 02:14:09;;;;;;;5.65;4.75;;;;;;;7.26;100.00;100872.88;2062708;28;20186;-67
2022/11/22 02:15:11;;;;;;;5.40;4.90;;;;;;;7.70;100.00;100941.13;2062577;28;20195;-66
2022/11/22 02:16:11;;;;;;;5.20;4.45;;;;;;;7.66;100.00;100937.59;2047806;28;20203;-66
2022/11/22 02:17:12;;;;;;;6.93;5.00;;;;;;;7.38;100.00;100880.66;2047721;28;20195;-66
2022/11/22 02:18:13;;;;;;;5.47;4.90;;;;;;;7.59;100.00;100916.34;2047713;28;20254;-66
2022/11/22 02:19:32;;;;;;;5.00;4.50;;;;;;;7.73;100.00;100941.09;2047345;28;20239;-66
2022/11/22 02:20:33;;;;;;;5.38;4.45;;;;;;;7.75;100.00;100948.97;2047270;28;20650;-66
2022/11/22 02:21:33;;;;;;;4.83;4.27;;;;;;;7.01;100.00;100827.34;2047744;28;20545;-67
2022/11/22 02:22:51;;;;;;;5.60;4.90;;;;;;;7.78;100.00;100939.84;2048029;28;20266;-66
2022/11/22 02:23:56;;;;;;;6.22;4.72;;;;;;;7.79;100.00;100939.47;2047104;29;20556;-66
2022/11/22 02:25:06;;;;;;;5.63;4.50;;;;;;;7.79;100.00;100944.97;2047898;29;20184;-67
2022/11/22 02:26:06;;;;;;;5.35;4.63;;;;;;;7.61;100.00;100910.44;2047218;28;20690;-66
2022/11/22 02:27:07;;;;;;;5.63;4.70;;;;;;;7.15;100.00;100852.06;2047887;28;20562;-66
2022/11/22 02:28:09;;;;;;;5.53;4.80;;;;;;;6.68;100.00;100761.84;2047990;28;20184;-66
2022/11/22 02:29:09;;;;;;;5.97;5.30;;;;;;;7.81;100.00;100939.84;2047478;28;20192;-66
2022/11/22 02:30:10;;;;;;;5.20;4.70;;;;;;;7.65;100.00;100916.72;2046896;28;20196;-67
2022/11/22 02:31:36;;;;;;;5.27;4.53;;;;;;;7.84;100.00;100944.53;2047779;29;20188;-66
2022/11/22 02:32:36;;;;;;;6.50;5.20;;;;;;;7.38;100.00;100872.38;2047675;28;20671;-66
2022/11/22 02:33:37;;;;;;;5.40;4.90;;;;;;;7.33;100.00;100870.06;2047284;28;20187;-66
2022/11/22 02:34:46;;;;;;;6.37;4.80;;;;;;;7.76;100.00;100945.81;2047712;28;20612;-66
2022/11/22 02:35:46;;;;;;;5.72;4.45;;;;;;;7.74;100.00;100941.88;2046897;29;20216;-66
2022/11/22 02:36:53;;;;;;;5.60;4.80;;;;;;;7.41;100.00;100884.56;2048166;28;20725;-66
2022/11/22 02:38:00;;;;;;;4.90;4.40;;;;;;;7.61;100.00;100924.22;2047168;28;20270;-66
2022/11/22 02:39:00;;;;;;;4.97;4.13;;;;;;;7.29;100.00;100868.53;2048190;29;20183;-66
2022/11/22 02:40:07;;;;;;;4.60;3.97;;;;;;;7.20;100.00;100848.88;2048698;28;20224;-66
2022/11/22 02:41:11;;;;;;;5.35;3.63;;;;;;;7.73;100.00;100920.97;2049171;28;20184;-67
2022/11/22 02:42:12;;;;;;;6.60;4.20;;;;;;;7.66;100.00;100916.31;2049142;28;20572;-66
2022/11/22 02:43:17;;;;;;;4.90;3.50;;;;;;;7.65;100.00;100909.25;2048938;29;20187;-66
2022/11/22 02:44:19;;;;;;;4.15;3.75;;;;;;;7.68;100.00;100930.47;2048893;28;20193;-66
2022/11/22 02:45:19;;;;;;;5.03;3.58;;;;;;;7.61;100.00;100918.72;2048902;29;20192;-66
2022/11/22 02:46:21;;;;;;;4.23;3.63;;;;;;;7.56;100.00;100922.69;2049448;29;20279;-66
2022/11/22 02:47:21;;;;;;;4.30;3.75;;;;;;;7.47;100.00;100905.00;2049035;28;20184;-66
2022/11/22 02:48:22;;;;;;;5.03;3.47;;;;;;;7.50;100.00;100916.03;2049189;28;20196;-66
2022/11/22 02:49:24;;;;;;;4.73;4.00;;;;;;;7.47;100.00;100916.84;2048483;28;20238;-66
2022/11/22 02:50:24;;;;;;;4.40;3.80;;;;;;;6.70;100.00;100804.31;2048387;28;20199;-66
2022/11/22 02:51:25;;;;;;;4.07;3.50;;;;;;;7.46;100.00;100912.53;2049059;29;20176;-67
2022/11/22 02:52:25;;;;;;;3.90;3.37;;;;;;;7.52;100.00;100912.84;2049613;28;20196;-66
2022/11/22 02:53:29;;;;;;;5.27;4.20;;;;;;;7.49;100.00;100917.22;2057308;28;20182;-66
2022/11/22 02:54:29;;;;;;;4.30;3.63;;;;;;;7.48;100.00;100914.88;2055461;28;20226;-66
2022/11/22 02:55:30;;;;;;;5.97;3.43;;;;;;;7.48;100.00;100915.66;2048015;28;20235;-66
2022/11/22 02:56:30;;;;;;;4.00;3.43;;;;;;;7.47;100.00;100924.31;2048481;28;20195;-66
2022/11/22 02:57:31;;;;;;;4.10;3.30;;;;;;;6.74;100.00;100799.59;2048929;29;20184;-66
2022/11/22 02:58:31;;;;;;;4.50;3.93;;;;;;;7.49;100.00;100916.44;2048649;29;20666;-66
2022/11/22 02:59:32;;;;;;;4.67;3.73;;;;;;;7.51;100.00;100920.38;2046913;28;20188;-66
2022/11/22 03:00:34;;;;;;;5.57;4.10;;;;;;;7.05;100.00;100850.16;2046526;29;20739;-66
2022/11/22 03:01:35;;;;;;;4.53;4.03;;;;;;;7.54;100.00;100932.56;2047704;29;20231;-66
2022/11/22 03:02:35;;;;;;;5.10;4.03;;;;;;;7.40;100.00;100916.91;2049151;28;20197;-66
2022/11/22 03:03:36;;;;;;;6.60;4.43;;;;;;;7.46;100.00;100931.81;2047739;28;20586;-67
2022/11/22 03:04:37;;;;;;;6.90;4.40;;;;;;;6.78;100.00;100838.91;2048128;29;20218;-66
2022/11/22 03:05:37;;;;;;;7.07;4.57;;;;;;;7.45;100.00;100932.22;2048345;28;20215;-66
2022/11/22 03:06:38;;;;;;;6.37;3.90;;;;;;;7.43;100.00;100931.84;2049011;28;20240;-67
2022/11/22 03:07:38;;;;;;;7.80;4.50;;;;;;;7.35;100.00;100931.09;2049170;28;20191;-66
2022/11/22 03:08:38;;;;;;;8.10;4.30;;;;;;;7.29;100.00;100929.94;2048429;28;20180;-66
2022/11/22 03:09:39;;;;;;;5.27;3.80;;;;;;;7.27;100.00;100929.56;2049418;28;20255;-66
2022/11/22 03:10:39;;;;;;;4.60;3.93;;;;;;;7.22;100.00;100935.50;2048346;28;20198;-66
2022/11/22 03:11:40;;;;;;;4.57;3.87;;;;;;;7.18;100.00;100925.69;2048945;28;20271;-66
2022/11/22 03:12:40;;;;;;;4.00;3.60;;;;;;;7.07;100.00;100922.97;2049211;28;20202;-66
2022/11/22 03:13:41;;;;;;;5.57;3.80;;;;;;;7.05;100.00;100925.34;2048647;28;20246;-66
2022/11/22 03:14:41;;;;;;;4.23;3.83;;;;;;;7.06;100.00;100926.94;2048993;28;20630;-66
2022/11/22 03:15:45;;;;;;;5.20;4.07;;;;;;;7.06;100.00;100926.94;2048445;28;20318;-66
2022/11/22 03:16:46;;;;;;;4.72;3.97;;;;;;;7.11;100.00;100922.94;2049339;28;20261;-66
2022/11/22 03:17:47;;;;;;;4.80;4.15;;;;;;;7.08;100.00;100926.53;2048669;28;20198;-67
2022/11/22 03:18:48;;;;;;;5.37;4.13;;;;;;;7.10;100.00;100919.44;2048246;29;20494;-66
2022/11/22 03:19:48;;;;;;;6.40;4.00;;;;;;;6.31;100.00;100806.47;2048212;28;20206;-66
2022/11/22 03:20:49;;;;;;;4.70;4.00;;;;;;;7.08;100.00;100918.25;2047588;29;20272;-66
2022/11/22 03:21:49;;;;;;;5.00;4.30;;;;;;;6.79;100.00;100881.78;2048711;29;20186;-67
2022/11/22 03:22:49;;;;;;;4.43;3.80;;;;;;;6.59;100.00;100839.41;2048722;28;20189;-66
2022/11/22 03:23:50;;;;;;;4.83;4.00;;;;;;;7.06;100.00;100917.84;2048085;28;20254;-66
2022/11/22 03:24:50;;;;;;;4.00;3.53;;;;;;;6.28;100.00;100790.75;2048186;28;20207;-67
2022/11/22 03:25:51;;;;;;;4.23;3.83;;;;;;;7.02;100.00;100914.34;2049241;29;20200;-66
2022/11/22 03:26:51;;;;;;;4.73;4.10;;;;;;;7.04;100.00;100915.53;2048969;28;20271;-66
2022/11/22 03:27:51;;;;;;;4.40;3.80;;;;;;;6.53;100.00;100841.00;2048870;28;20187;-66
2022/11/22 03:28:52;;;;;;;4.63;3.80;;;;;;;7.02;100.00;100911.59;2048695;28;20282;-66
2022/11/22 03:29:52;;;;;;;4.07;3.57;;;;;;;6.55;100.00;100840.56;2049040;28;20196;-66
2022/11/22 03:30:53;;;;;;;4.17;3.50;;;;;;;7.11;100.00;100920.19;2047910;28;20709;-66
2022/11/22 03:31:53;;;;;;;4.80;3.70;;;;;;;7.12;100.00;100919.81;2048621;28;20195;-66
2022/11/22 03:32:54;;;;;;;4.50;3.70;;;;;;;7.03;100.00;100902.16;2048566;28;20208;-67
2022/11/22 03:33:55;;;;;;;4.30;3.90;;;;;;;7.18;100.00;100920.19;2048753;28;20670;-66
2022/11/22 03:34:56;;;;;;;4.67;3.80;;;;;;;7.19;100.00;100922.53;2045539;29;20594;-67
2022/11/22 03:35:57;;;;;;;4.20;3.77;;;;;;;6.66;100.00;100847.59;2049000;28;20206;-66
2022/11/22 03:36:57;;;;;;;4.70;4.00;;;;;;;6.77;100.00;100848.34;2048807;28;20604;-66
2022/11/22 03:37:57;;;;;;;4.70;4.07;;;;;;;7.23;100.00;100915.00;2048747;28;20214;-66
2022/11/22 03:38:58;;;;;;;4.30;3.63;;;;;;;7.23;100.00;100925.28;2047148;28;20192;-66
2022/11/22 03:39:58;;;;;;;4.70;4.00;;;;;;;7.22;100.00;100913.44;2048155;28;20218;-66
2022/11/22 03:40:59;;;;;;;4.03;3.57;;;;;;;7.24;100.00;100913.84;2048316;28;20274;-66
2022/11/22 03:41:59;;;;;;;4.20;3.80;;;;;;;7.04;100.00;100895.44;2048914;28;20191;-66
2022/11/22 03:43:00;;;;;;;3.87;3.47;;;;;;;7.21;100.00;100911.09;2050110;28;20206;-66
2022/11/22 03:44:01;;;;;;;4.47;3.42;;;;;;;7.21;100.00;100911.09;2048388;28;20624;-66
2022/11/22 03:45:02;;;;;;;5.03;3.97;;;;;;;7.24;100.00;100911.09;2049086;28;20192;-66
2022/11/22 03:46:02;;;;;;;4.73;3.90;;;;;;;7.22;100.00;100907.94;2048611;28;20195;-66
2022/11/22 03:47:03;;;;;;;3.90;3.40;;;;;;;7.14;100.00;100897.34;2047863;28;20222;-66
2022/11/22 03:48:03;;;;;;;4.87;4.37;;;;;;;7.18;100.00;100904.41;2048470;28;20614;-66
2022/11/22 03:49:04;;;;;;;4.70;4.20;;;;;;;6.55;100.00;100810.28;2046548;29;20189;-66
2022/11/22 03:50:05;;;;;;;4.43;3.80;;;;;;;7.22;100.00;100915.44;2045691;29;20188;-66
2022/11/22 03:51:05;;;;;;;5.20;3.90;;;;;;;7.22;100.00;100910.69;2048880;28;20271;-66
2022/11/22 03:52:06;;;;;;;8.47;4.03;;;;;;;6.95;100.00;100868.34;2046425;28;20251;-66
2022/11/22 03:53:07;;;;;;;5.13;4.53;;;;;;;6.89;100.00;100875.47;2048761;28;20192;-66
2022/11/22 03:54:07;;;;;;;6.87;4.40;;;;;;;6.76;100.00;100859.78;2047414;29;20180;-66
2022/11/22 03:55:08;;;;;;;7.63;5.90;;;;;;;7.06;100.00;100901.31;2056234;28;20215;-66
2022/11/22 03:56:08;;;;;;;5.93;5.30;;;;;;;7.09;100.00;100904.09;2055872;28;20226;-66
2022/11/22 03:57:09;;;;;;;10.47;5.00;;;;;;;7.02;100.00;100903.34;2048426;28;20247;-66
2022/11/22 03:58:09;;;;;;;7.57;5.40;;;;;;;6.99;100.00;100899.41;2048895;28;20311;-66
2022/11/22 03:59:10;;;;;;;6.50;5.37;;;;;;;6.94;100.00;100908.09;2048549;28;20673;-66
2022/11/22 04:00:11;;;;;;;6.37;5.63;;;;;;;6.92;100.00;100906.94;2047934;28;20687;-66
2022/11/22 04:01:11;;;;;;;8.38;5.13;;;;;;;6.35;100.00;100820.22;2048789;28;20270;-65
2022/11/22 04:02:12;;;;;;;8.00;5.80;;;;;;;6.59;100.00;100863.38;2048920;28;20189;-66
2022/11/22 04:03:12;;;;;;;8.37;5.90;;;;;;;6.84;100.00;100903.41;2048628;29;20274;-66
2022/11/22 04:04:13;;;;;;;6.97;6.13;;;;;;;6.83;100.00;100903.81;2048183;28;20605;-66
2022/11/22 04:05:13;;;;;;;7.17;6.20;;;;;;;6.84;100.00;100905.38;2048535;28;20669;-66
2022/11/22 04:06:14;;;;;;;7.50;6.33;;;;;;;6.43;100.00;100841.03;2048615;28;20188;-66
2022/11/22 04:07:14;;;;;;;8.00;6.30;;;;;;;6.81;100.00;100906.97;2048866;28;20190;-66
2022/11/22 04:08:15;;;;;;;7.30;5.63;;;;;;;6.24;100.00;100827.72;2048431;28;20226;-66
2022/11/22 04:09:15;;;;;;;8.77;6.47;;;;;;;6.85;100.00;100918.75;2048222;28;20248;-66
2022/11/22 04:10:16;;;;;;;7.50;6.50;;;;;;;6.87;100.00;100929.38;2047880;28;20187;-66
2022/11/22 04:11:16;;;;;;;7.50;5.60;;;;;;;6.85;100.00;100928.97;2048156;28;20195;-67
2022/11/22 04:12:16;;;;;;;8.20;6.23;;;;;;;6.82;100.00;100924.28;2048622;28;20677;-66
2022/11/22 04:13:18;;;;;;;7.07;6.37;;;;;;;6.86;100.00;100930.53;2048277;28;20577;-66
2022/11/22 04:15:38;;;;;;;8.65;4.63;;;;;;;6.89;100.00;100929.75;2048495;28;20176;-66
2022/11/22 04:16:38;;;;;;;8.43;6.00;;;;;;;6.88;100.00;100920.69;2048382;29;20176;-66
2022/11/22 04:17:42;;;;;;;8.67;7.77;;;;;;;6.80;100.00;100924.69;2049045;28;20274;-66
2022/11/22 04:18:43;;;;;;;9.23;4.70;;;;;;;6.81;100.00;100917.97;2046869;29;20555;-66
2022/11/22 04:21:32;;;;;;;8.73;7.00;;;;;;;6.07;100.00;100825.81;2048643;28;20214;-66
2022/11/22 04:22:22;;;;;;;10.68;8.50;;;;;;;5.89;100.00;100784.59;2048387;29;20571;-66
2022/11/22 04:23:24;;;;;;;9.70;8.50;;;;;;;6.30;100.00;100854.44;2048551;28;20181;-66
2022/11/22 04:25:54;;;;;;;9.40;8.50;;;;;;;6.38;100.00;100900.03;2048146;29;20258;-67
2022/11/22 04:26:55;;;;;;;10.68;7.85;;;;;;;6.62;100.00;100940.47;2047857;29;20174;-66
2022/11/22 04:27:56;;;;;;;9.23;7.82;;;;;;;6.68;100.00;100935.34;2048550;28;20764;-66
2022/11/22 04:28:57;;;;;;;9.03;8.13;;;;;;;6.69;100.00;100942.41;2048112;28;20187;-66
2022/11/22 04:29:57;;;;;;;8.27;7.37;;;;;;;6.64;100.00;100943.63;2048334;28;20330;-67
2022/11/22 04:33:35;;;;;;;9.00;7.88;;;;;;;6.66;100.00;100943.22;2047624;29;20567;-66
2022/11/22 04:34:36;;;;;;;10.10;8.07;;;;;;;6.72;100.00;100955.41;2048591;28;20242;-66
2022/11/22 04:35:37;;;;;;;9.33;7.70;;;;;;;6.71;100.00;100962.88;2048079;28;20230;-67
2022/11/22 04:36:38;;;;;;;8.10;6.72;;;;;;;6.74;100.00;100947.53;2048660;28;20676;-67
2022/11/22 04:37:38;;;;;;;7.87;6.33;;;;;;;6.72;100.00;100955.41;2048239;28;20207;-66
2022/11/22 04:38:38;;;;;;;8.67;7.30;;;;;;;6.67;100.00;100948.31;2047395;28;20191;-66
2022/11/22 04:39:39;;;;;;;8.60;7.50;;;;;;;6.64;100.00;100951.88;2047947;29;20208;-66
2022/11/22 04:40:40;;;;;;;8.20;7.30;;;;;;;6.65;100.00;100950.69;2046875;28;20198;-66
2022/11/22 04:41:40;;;;;;;8.50;7.60;;;;;;;6.65;100.00;100944.38;2047843;29;20718;-66
2022/11/22 04:45:32;;;;;;;8.90;7.15;;;;;;;6.21;100.00;100895.34;2045748;29;20200;-66
2022/11/22 04:46:33;;;;;;;9.43;7.07;;;;;;;6.68;100.00;100965.63;2048578;28;20266;-66
2022/11/22 04:48:52;;;;;;;8.32;6.90;;;;;;;6.70;100.00;100971.53;2047738;29;20208;-66
2022/11/22 04:49:53;;;;;;;7.87;6.93;;;;;;;6.70;100.00;100969.56;2048613;28;20180;-67
2022/11/22 04:53:31;;;;;;;7.72;6.57;;;;;;;6.16;100.00;100895.75;2047929;29;20262;-66
2022/11/22 04:54:31;;;;;;;8.03;7.10;;;;;;;6.66;100.00;100970.78;2048269;28;20199;-67
2022/11/22 04:55:32;;;;;;;8.10;7.30;;;;;;;6.65;100.00;100974.69;2048366;28;20279;-66
2022/11/22 04:56:32;;;;;;;9.00;7.40;;;;;;;6.54;100.00;100955.44;2047707;28;20645;-66
2022/11/22 04:57:33;;;;;;;7.40;6.60;;;;;;;6.68;100.00;100979.41;2048415;28;20194;-66
2022/11/22 04:58:33;;;;;;;7.90;7.10;;;;;;;6.66;100.00;100979.78;2047719;28;20684;-66
2022/11/22 04:59:33;;;;;;;9.53;7.13;;;;;;;6.61;100.00;100974.69;2047973;28;20622;-66